sensor_id;sensor_type;location;lat;lon;timestamp;P1;durP1;ratioP1;P2;durP2;ratioP2
53261;SDS011;39658;51.090;-1.786;2023-08-24T00:02:00;28.40;;;9.75;;
53261;SDS011;39658;51.090;-1.786;2023-08-24T00:04:27;33.38;;;8.68;;
53261;SDS011;39658;51.090;-1.786;2023-08-24T00:06:54;30.75;;;10.38;;
53261;SDS011;39658;51.090;-1.786;2023-08-24T00:09:21;23.42;;;8.48;;
53261;SDS011;39658;51.090;-1.786;2023-08-24T00:11:48;23.23;;;7.63;;
53261;SDS011;39658;51.090;-1.786;2023-08-24T00:14:15;14.57;;;5.47;;
53261;SDS011;39658;51.090;-1.786;2023-08-24T00:16:43;19.00;;;6.35;;
53261;SDS011;39658;51.090;-1.786;2023-08-24T00:19:10;20.80;;;5.97;;
53261;SDS011;39658;51.090;-1.786;2023-08-24T00:21:37;19.25;;;7.78;;
53261;SDS011;39658;51.090;-1.786;2023-08-24T00:24:04;25.30;;;9.30;;
53261;SDS011;39658;51.090;-1.786;2023-08-24T00:26:31;27.42;;;8.35;;
53261;SDS011;39658;51.090;-1.786;2023-08-24T00:28:58;26.02;;;9.35;;
53261;SDS011;39658;51.090;-1.786;2023-08-24T00:31:24;30.92;;;9.80;;
53261;SDS011;39658;51.090;-1.786;2023-08-24T00:33:53;33.30;;;12.02;;
53261;SDS011;39658;51.090;-1.786;2023-08-24T00:36:19;38.70;;;10.73;;
53261;SDS011;39658;51.090;-1.786;2023-08-24T00:38:48;28.33;;;12.00;;
53261;SDS011;39658;51.090;-1.786;2023-08-24T00:41:16;50.40;;;17.30;;
53261;SDS011;39658;51.090;-1.786;2023-08-24T00:43:44;48.28;;;16.70;;
53261;SDS011;39658;51.090;-1.786;2023-08-24T00:46:11;46.28;;;16.77;;
53261;SDS011;39658;51.090;-1.786;2023-08-24T00:48:39;35.08;;;13.40;;
53261;SDS011;39658;51.090;-1.786;2023-08-24T00:51:07;39.03;;;10.38;;
53261;SDS011;39658;51.090;-1.786;2023-08-24T00:53:34;21.25;;;7.47;;
53261;SDS011;39658;51.090;-1.786;2023-08-24T00:56:03;14.52;;;5.15;;
53261;SDS011;39658;51.090;-1.786;2023-08-24T00:58:31;16.88;;;5.65;;
53261;SDS011;39658;51.090;-1.786;2023-08-24T01:00:59;11.75;;;3.70;;
53261;SDS011;39658;51.090;-1.786;2023-08-24T01:03:26;9.02;;;3.10;;
53261;SDS011;39658;51.090;-1.786;2023-08-24T01:05:53;4.93;;;2.30;;
53261;SDS011;39658;51.090;-1.786;2023-08-24T01:08:21;9.75;;;3.13;;
53261;SDS011;39658;51.090;-1.786;2023-08-24T01:10:52;10.02;;;2.65;;
53261;SDS011;39658;51.090;-1.786;2023-08-24T01:13:27;7.35;;;2.65;;
53261;SDS011;39658;51.090;-1.786;2023-08-24T01:15:59;8.38;;;2.47;;
53261;SDS011;39658;51.090;-1.786;2023-08-24T01:18:31;11.57;;;3.00;;
53261;SDS011;39658;51.090;-1.786;2023-08-24T01:21:01;9.52;;;2.60;;
53261;SDS011;39658;51.090;-1.786;2023-08-24T01:23:33;8.77;;;2.83;;
53261;SDS011;39658;51.090;-1.786;2023-08-24T01:26:13;6.80;;;2.88;;
53261;SDS011;39658;51.090;-1.786;2023-08-24T01:28:43;8.15;;;3.25;;
53261;SDS011;39658;51.090;-1.786;2023-08-24T01:31:10;10.35;;;3.08;;
53261;SDS011;39658;51.090;-1.786;2023-08-24T01:33:39;14.77;;;3.00;;
53261;SDS011;39658;51.090;-1.786;2023-08-24T01:36:07;8.45;;;3.35;;
53261;SDS011;39658;51.090;-1.786;2023-08-24T01:38:34;10.63;;;3.00;;
53261;SDS011;39658;51.090;-1.786;2023-08-24T01:41:04;8.55;;;2.95;;
53261;SDS011;39658;51.090;-1.786;2023-08-24T01:43:40;7.93;;;2.70;;
53261;SDS011;39658;51.090;-1.786;2023-08-24T01:46:10;11.32;;;2.95;;
53261;SDS011;39658;51.090;-1.786;2023-08-24T01:48:41;8.73;;;2.92;;
53261;SDS011;39658;51.090;-1.786;2023-08-24T01:51:08;15.55;;;3.47;;
53261;SDS011;39658;51.090;-1.786;2023-08-24T01:53:36;8.15;;;2.97;;
53261;SDS011;39658;51.090;-1.786;2023-08-24T01:56:07;9.98;;;3.35;;
53261;SDS011;39658;51.090;-1.786;2023-08-24T01:58:35;13.57;;;3.00;;
53261;SDS011;39658;51.090;-1.786;2023-08-24T02:01:03;10.13;;;3.08;;
53261;SDS011;39658;51.090;-1.786;2023-08-24T02:03:30;9.90;;;3.13;;
53261;SDS011;39658;51.090;-1.786;2023-08-24T02:05:57;11.57;;;3.58;;
53261;SDS011;39658;51.090;-1.786;2023-08-24T02:08:24;19.15;;;4.85;;
53261;SDS011;39658;51.090;-1.786;2023-08-24T02:10:51;12.02;;;4.60;;
53261;SDS011;39658;51.090;-1.786;2023-08-24T02:13:18;15.43;;;4.97;;
53261;SDS011;39658;51.090;-1.786;2023-08-24T02:15:45;18.83;;;5.68;;
53261;SDS011;39658;51.090;-1.786;2023-08-24T02:18:13;17.73;;;7.18;;
53261;SDS011;39658;51.090;-1.786;2023-08-24T02:20:40;20.00;;;5.80;;
53261;SDS011;39658;51.090;-1.786;2023-08-24T02:23:07;16.45;;;5.50;;
53261;SDS011;39658;51.090;-1.786;2023-08-24T02:25:34;15.23;;;5.72;;
53261;SDS011;39658;51.090;-1.786;2023-08-24T02:28:00;13.35;;;4.90;;
53261;SDS011;39658;51.090;-1.786;2023-08-24T02:30:27;12.82;;;4.90;;
53261;SDS011;39658;51.090;-1.786;2023-08-24T02:32:54;10.38;;;4.07;;
53261;SDS011;39658;51.090;-1.786;2023-08-24T02:35:22;12.73;;;3.63;;
53261;SDS011;39658;51.090;-1.786;2023-08-24T02:37:49;9.70;;;3.78;;
53261;SDS011;39658;51.090;-1.786;2023-08-24T02:40:16;14.38;;;3.88;;
53261;SDS011;39658;51.090;-1.786;2023-08-24T02:42:43;11.98;;;3.83;;
53261;SDS011;39658;51.090;-1.786;2023-08-24T02:45:10;12.88;;;4.28;;
53261;SDS011;39658;51.090;-1.786;2023-08-24T02:47:37;12.88;;;4.55;;
53261;SDS011;39658;51.090;-1.786;2023-08-24T02:50:05;14.85;;;4.45;;
53261;SDS011;39658;51.090;-1.786;2023-08-24T02:52:33;17.45;;;5.32;;
53261;SDS011;39658;51.090;-1.786;2023-08-24T02:55:00;16.50;;;4.88;;
53261;SDS011;39658;51.090;-1.786;2023-08-24T02:57:27;16.40;;;4.90;;
53261;SDS011;39658;51.090;-1.786;2023-08-24T02:59:54;12.40;;;4.38;;
53261;SDS011;39658;51.090;-1.786;2023-08-24T03:02:21;17.63;;;4.82;;
53261;SDS011;39658;51.090;-1.786;2023-08-24T03:04:48;12.15;;;3.90;;
53261;SDS011;39658;51.090;-1.786;2023-08-24T03:07:15;11.82;;;5.43;;
53261;SDS011;39658;51.090;-1.786;2023-08-24T03:09:43;21.48;;;7.45;;
53261;SDS011;39658;51.090;-1.786;2023-08-24T03:12:10;33.92;;;11.05;;
53261;SDS011;39658;51.090;-1.786;2023-08-24T03:14:37;26.80;;;9.13;;
53261;SDS011;39658;51.090;-1.786;2023-08-24T03:17:04;24.05;;;7.43;;
53261;SDS011;39658;51.090;-1.786;2023-08-24T03:19:32;26.35;;;8.95;;
53261;SDS011;39658;51.090;-1.786;2023-08-24T03:21:59;28.77;;;7.10;;
53261;SDS011;39658;51.090;-1.786;2023-08-24T03:24:26;27.52;;;9.52;;
53261;SDS011;39658;51.090;-1.786;2023-08-24T03:26:54;22.27;;;9.88;;
53261;SDS011;39658;51.090;-1.786;2023-08-24T03:29:21;21.88;;;8.43;;
53261;SDS011;39658;51.090;-1.786;2023-08-24T03:31:47;26.38;;;7.63;;
53261;SDS011;39658;51.090;-1.786;2023-08-24T03:34:14;20.42;;;5.85;;
53261;SDS011;39658;51.090;-1.786;2023-08-24T03:36:41;15.25;;;5.65;;
53261;SDS011;39658;51.090;-1.786;2023-08-24T03:39:08;16.77;;;5.30;;
53261;SDS011;39658;51.090;-1.786;2023-08-24T03:41:35;16.08;;;4.70;;
53261;SDS011;39658;51.090;-1.786;2023-08-24T03:44:03;9.38;;;4.03;;
53261;SDS011;39658;51.090;-1.786;2023-08-24T03:46:30;12.25;;;4.22;;
53261;SDS011;39658;51.090;-1.786;2023-08-24T03:48:57;12.68;;;3.53;;
53261;SDS011;39658;51.090;-1.786;2023-08-24T03:51:24;11.75;;;4.30;;
53261;SDS011;39658;51.090;-1.786;2023-08-24T03:53:51;8.85;;;3.65;;
53261;SDS011;39658;51.090;-1.786;2023-08-24T03:56:17;9.98;;;3.40;;
53261;SDS011;39658;51.090;-1.786;2023-08-24T03:58:44;12.73;;;4.40;;
53261;SDS011;39658;51.090;-1.786;2023-08-24T04:01:12;14.63;;;4.35;;
53261;SDS011;39658;51.090;-1.786;2023-08-24T04:03:39;13.65;;;4.53;;
53261;SDS011;39658;51.090;-1.786;2023-08-24T04:06:06;15.95;;;6.30;;
53261;SDS011;39658;51.090;-1.786;2023-08-24T04:08:33;14.82;;;5.53;;
53261;SDS011;39658;51.090;-1.786;2023-08-24T04:11:00;17.25;;;5.82;;
53261;SDS011;39658;51.090;-1.786;2023-08-24T04:13:27;15.10;;;6.35;;
53261;SDS011;39658;51.090;-1.786;2023-08-24T04:15:54;18.13;;;5.97;;
53261;SDS011;39658;51.090;-1.786;2023-08-24T04:18:22;18.02;;;5.80;;
53261;SDS011;39658;51.090;-1.786;2023-08-24T04:20:51;16.42;;;5.28;;
53261;SDS011;39658;51.090;-1.786;2023-08-24T04:23:23;16.60;;;6.72;;
53261;SDS011;39658;51.090;-1.786;2023-08-24T04:25:50;16.35;;;6.43;;
53261;SDS011;39658;51.090;-1.786;2023-08-24T04:28:17;19.88;;;5.63;;
53261;SDS011;39658;51.090;-1.786;2023-08-24T04:30:48;15.90;;;5.40;;
53261;SDS011;39658;51.090;-1.786;2023-08-24T04:33:16;10.95;;;4.05;;
53261;SDS011;39658;51.090;-1.786;2023-08-24T04:35:46;14.80;;;4.15;;
53261;SDS011;39658;51.090;-1.786;2023-08-24T04:38:12;13.68;;;4.43;;
53261;SDS011;39658;51.090;-1.786;2023-08-24T04:40:49;11.75;;;4.35;;
53261;SDS011;39658;51.090;-1.786;2023-08-24T04:43:17;10.20;;;3.60;;
53261;SDS011;39658;51.090;-1.786;2023-08-24T04:45:45;8.48;;;3.60;;
53261;SDS011;39658;51.090;-1.786;2023-08-24T04:48:13;9.77;;;3.80;;
53261;SDS011;39658;51.090;-1.786;2023-08-24T04:50:41;18.63;;;3.53;;
53261;SDS011;39658;51.090;-1.786;2023-08-24T04:53:11;12.40;;;3.17;;
53261;SDS011;39658;51.090;-1.786;2023-08-24T04:55:39;9.30;;;4.43;;
53261;SDS011;39658;51.090;-1.786;2023-08-24T04:58:06;13.65;;;4.47;;
53261;SDS011;39658;51.090;-1.786;2023-08-24T05:00:33;17.02;;;3.80;;
53261;SDS011;39658;51.090;-1.786;2023-08-24T05:03:00;13.60;;;4.22;;
53261;SDS011;39658;51.090;-1.786;2023-08-24T05:05:28;13.75;;;5.22;;
53261;SDS011;39658;51.090;-1.786;2023-08-24T05:07:55;12.88;;;4.70;;
53261;SDS011;39658;51.090;-1.786;2023-08-24T05:10:23;14.43;;;5.65;;
53261;SDS011;39658;51.090;-1.786;2023-08-24T05:12:50;21.20;;;5.75;;
53261;SDS011;39658;51.090;-1.786;2023-08-24T05:15:17;12.05;;;4.75;;
53261;SDS011;39658;51.090;-1.786;2023-08-24T05:17:44;18.88;;;5.70;;
53261;SDS011;39658;51.090;-1.786;2023-08-24T05:20:11;13.43;;;5.32;;
53261;SDS011;39658;51.090;-1.786;2023-08-24T05:22:38;13.95;;;4.97;;
53261;SDS011;39658;51.090;-1.786;2023-08-24T05:25:05;15.13;;;5.68;;
53261;SDS011;39658;51.090;-1.786;2023-08-24T05:27:34;13.07;;;4.63;;
53261;SDS011;39658;51.090;-1.786;2023-08-24T05:30:00;9.85;;;3.97;;
53261;SDS011;39658;51.090;-1.786;2023-08-24T05:32:27;9.13;;;4.18;;
53261;SDS011;39658;51.090;-1.786;2023-08-24T05:34:54;13.40;;;4.07;;
53261;SDS011;39658;51.090;-1.786;2023-08-24T05:37:21;11.10;;;4.20;;
53261;SDS011;39658;51.090;-1.786;2023-08-24T05:39:48;8.70;;;3.83;;
53261;SDS011;39658;51.090;-1.786;2023-08-24T05:42:14;14.32;;;6.10;;
53261;SDS011;39658;51.090;-1.786;2023-08-24T05:44:43;18.20;;;6.60;;
53261;SDS011;39658;51.090;-1.786;2023-08-24T05:47:09;11.80;;;4.43;;
53261;SDS011;39658;51.090;-1.786;2023-08-24T05:49:36;10.45;;;4.55;;
53261;SDS011;39658;51.090;-1.786;2023-08-24T05:52:03;10.35;;;4.53;;
53261;SDS011;39658;51.090;-1.786;2023-08-24T05:54:30;16.70;;;6.75;;
53261;SDS011;39658;51.090;-1.786;2023-08-24T05:56:57;23.40;;;7.25;;
53261;SDS011;39658;51.090;-1.786;2023-08-24T05:59:25;14.98;;;6.18;;
53261;SDS011;39658;51.090;-1.786;2023-08-24T06:01:54;19.80;;;6.38;;
53261;SDS011;39658;51.090;-1.786;2023-08-24T06:04:20;18.13;;;5.80;;
53261;SDS011;39658;51.090;-1.786;2023-08-24T06:06:47;14.00;;;5.85;;
53261;SDS011;39658;51.090;-1.786;2023-08-24T06:09:14;15.43;;;5.53;;
53261;SDS011;39658;51.090;-1.786;2023-08-24T06:11:41;16.40;;;6.00;;
53261;SDS011;39658;51.090;-1.786;2023-08-24T06:14:08;15.68;;;5.15;;
53261;SDS011;39658;51.090;-1.786;2023-08-24T06:16:34;20.27;;;5.85;;
53261;SDS011;39658;51.090;-1.786;2023-08-24T06:19:03;14.75;;;5.68;;
53261;SDS011;39658;51.090;-1.786;2023-08-24T06:21:29;17.83;;;6.65;;
53261;SDS011;39658;51.090;-1.786;2023-08-24T06:23:56;17.13;;;5.68;;
53261;SDS011;39658;51.090;-1.786;2023-08-24T06:26:23;19.58;;;6.05;;
53261;SDS011;39658;51.090;-1.786;2023-08-24T06:28:50;15.23;;;5.53;;
53261;SDS011;39658;51.090;-1.786;2023-08-24T06:31:17;24.33;;;6.50;;
53261;SDS011;39658;51.090;-1.786;2023-08-24T06:33:44;25.40;;;7.32;;
53261;SDS011;39658;51.090;-1.786;2023-08-24T06:36:12;27.20;;;6.15;;
53261;SDS011;39658;51.090;-1.786;2023-08-24T06:38:39;19.35;;;6.88;;
53261;SDS011;39658;51.090;-1.786;2023-08-24T06:41:06;18.42;;;8.02;;
53261;SDS011;39658;51.090;-1.786;2023-08-24T06:43:36;21.83;;;7.80;;
53261;SDS011;39658;51.090;-1.786;2023-08-24T06:46:04;26.27;;;8.40;;
53261;SDS011;39658;51.090;-1.786;2023-08-24T06:48:33;22.75;;;8.55;;
53261;SDS011;39658;51.090;-1.786;2023-08-24T06:51:00;23.27;;;8.32;;
53261;SDS011;39658;51.090;-1.786;2023-08-24T06:53:28;22.98;;;7.22;;
53261;SDS011;39658;51.090;-1.786;2023-08-24T06:55:55;26.17;;;9.90;;
53261;SDS011;39658;51.090;-1.786;2023-08-24T06:58:22;29.10;;;11.85;;
53261;SDS011;39658;51.090;-1.786;2023-08-24T07:00:49;37.10;;;13.18;;
53261;SDS011;39658;51.090;-1.786;2023-08-24T07:03:16;38.80;;;11.13;;
53261;SDS011;39658;51.090;-1.786;2023-08-24T07:05:43;23.60;;;9.30;;
53261;SDS011;39658;51.090;-1.786;2023-08-24T07:08:10;18.67;;;5.97;;
53261;SDS011;39658;51.090;-1.786;2023-08-24T07:10:39;11.23;;;4.68;;
53261;SDS011;39658;51.090;-1.786;2023-08-24T07:13:07;12.25;;;4.38;;
53261;SDS011;39658;51.090;-1.786;2023-08-24T07:15:34;12.45;;;3.92;;
53261;SDS011;39658;51.090;-1.786;2023-08-24T07:18:01;11.15;;;4.43;;
53261;SDS011;39658;51.090;-1.786;2023-08-24T07:20:30;13.13;;;4.65;;
53261;SDS011;39658;51.090;-1.786;2023-08-24T07:22:58;10.48;;;4.07;;
53261;SDS011;39658;51.090;-1.786;2023-08-24T07:25:25;9.52;;;4.38;;
53261;SDS011;39658;51.090;-1.786;2023-08-24T07:27:54;13.15;;;4.00;;
53261;SDS011;39658;51.090;-1.786;2023-08-24T07:30:23;11.25;;;3.53;;
53261;SDS011;39658;51.090;-1.786;2023-08-24T07:32:50;11.15;;;3.50;;
53261;SDS011;39658;51.090;-1.786;2023-08-24T07:35:17;8.55;;;3.70;;
53261;SDS011;39658;51.090;-1.786;2023-08-24T07:37:45;9.25;;;3.08;;
53261;SDS011;39658;51.090;-1.786;2023-08-24T07:40:13;11.48;;;3.20;;
53261;SDS011;39658;51.090;-1.786;2023-08-24T07:42:43;8.23;;;3.22;;
53261;SDS011;39658;51.090;-1.786;2023-08-24T07:45:12;9.32;;;3.63;;
53261;SDS011;39658;51.090;-1.786;2023-08-24T07:47:40;11.02;;;4.03;;
53261;SDS011;39658;51.090;-1.786;2023-08-24T07:50:07;8.15;;;3.03;;
53261;SDS011;39658;51.090;-1.786;2023-08-24T07:52:35;8.73;;;3.30;;
53261;SDS011;39658;51.090;-1.786;2023-08-24T07:55:02;10.13;;;3.78;;
53261;SDS011;39658;51.090;-1.786;2023-08-24T07:57:30;11.90;;;3.28;;
53261;SDS011;39658;51.090;-1.786;2023-08-24T07:59:57;8.77;;;3.30;;
53261;SDS011;39658;51.090;-1.786;2023-08-24T08:02:26;11.13;;;3.03;;
53261;SDS011;39658;51.090;-1.786;2023-08-24T08:04:55;10.38;;;4.28;;
53261;SDS011;39658;51.090;-1.786;2023-08-24T08:07:23;8.15;;;2.75;;
53261;SDS011;39658;51.090;-1.786;2023-08-24T08:09:50;11.40;;;3.50;;
53261;SDS011;39658;51.090;-1.786;2023-08-24T08:12:17;11.57;;;3.92;;
53261;SDS011;39658;51.090;-1.786;2023-08-24T08:14:44;9.75;;;3.13;;
53261;SDS011;39658;51.090;-1.786;2023-08-24T08:17:11;7.43;;;3.00;;
53261;SDS011;39658;51.090;-1.786;2023-08-24T08:19:39;8.38;;;3.40;;
53261;SDS011;39658;51.090;-1.786;2023-08-24T08:22:06;10.00;;;3.10;;
53261;SDS011;39658;51.090;-1.786;2023-08-24T08:24:33;12.75;;;4.35;;
53261;SDS011;39658;51.090;-1.786;2023-08-24T08:27:00;8.90;;;3.55;;
53261;SDS011;39658;51.090;-1.786;2023-08-24T08:29:27;7.65;;;3.00;;
53261;SDS011;39658;51.090;-1.786;2023-08-24T08:31:54;9.30;;;4.30;;
53261;SDS011;39658;51.090;-1.786;2023-08-24T08:34:21;7.72;;;2.47;;
53261;SDS011;39658;51.090;-1.786;2023-08-24T08:36:49;9.13;;;3.25;;
53261;SDS011;39658;51.090;-1.786;2023-08-24T08:39:16;12.07;;;4.53;;
53261;SDS011;39658;51.090;-1.786;2023-08-24T08:41:44;16.65;;;5.03;;
53261;SDS011;39658;51.090;-1.786;2023-08-24T08:44:12;10.25;;;3.92;;
53261;SDS011;39658;51.090;-1.786;2023-08-24T08:46:40;11.02;;;5.35;;
53261;SDS011;39658;51.090;-1.786;2023-08-24T08:49:08;9.85;;;3.45;;
53261;SDS011;39658;51.090;-1.786;2023-08-24T08:51:35;12.40;;;4.07;;
53261;SDS011;39658;51.090;-1.786;2023-08-24T08:54:04;12.10;;;3.70;;
53261;SDS011;39658;51.090;-1.786;2023-08-24T08:56:31;8.50;;;3.63;;
53261;SDS011;39658;51.090;-1.786;2023-08-24T08:58:58;11.52;;;4.18;;
53261;SDS011;39658;51.090;-1.786;2023-08-24T09:01:26;9.55;;;3.25;;
53261;SDS011;39658;51.090;-1.786;2023-08-24T09:03:54;6.82;;;2.50;;
53261;SDS011;39658;51.090;-1.786;2023-08-24T09:06:21;7.70;;;2.92;;
53261;SDS011;39658;51.090;-1.786;2023-08-24T09:08:48;8.20;;;2.92;;
53261;SDS011;39658;51.090;-1.786;2023-08-24T09:11:17;7.15;;;2.92;;
53261;SDS011;39658;51.090;-1.786;2023-08-24T09:13:44;7.25;;;2.95;;
53261;SDS011;39658;51.090;-1.786;2023-08-24T09:16:11;12.30;;;2.42;;
53261;SDS011;39658;51.090;-1.786;2023-08-24T09:18:41;8.75;;;2.30;;
53261;SDS011;39658;51.090;-1.786;2023-08-24T09:21:10;9.60;;;2.95;;
53261;SDS011;39658;51.090;-1.786;2023-08-24T09:23:38;8.27;;;2.40;;
53261;SDS011;39658;51.090;-1.786;2023-08-24T09:26:09;7.63;;;2.90;;
53261;SDS011;39658;51.090;-1.786;2023-08-24T09:28:37;13.45;;;5.70;;
53261;SDS011;39658;51.090;-1.786;2023-08-24T09:33:32;17.08;;;6.53;;
53261;SDS011;39658;51.090;-1.786;2023-08-24T09:35:59;23.08;;;9.55;;
53261;SDS011;39658;51.090;-1.786;2023-08-24T09:40:55;11.05;;;4.15;;
53261;SDS011;39658;51.090;-1.786;2023-08-24T09:43:22;12.57;;;3.78;;
53261;SDS011;39658;51.090;-1.786;2023-08-24T09:45:53;11.32;;;4.18;;
53261;SDS011;39658;51.090;-1.786;2023-08-24T09:48:21;11.48;;;3.40;;
53261;SDS011;39658;51.090;-1.786;2023-08-24T09:50:49;6.90;;;2.97;;
53261;SDS011;39658;51.090;-1.786;2023-08-24T09:53:18;8.20;;;3.47;;
53261;SDS011;39658;51.090;-1.786;2023-08-24T09:55:48;7.28;;;2.70;;
53261;SDS011;39658;51.090;-1.786;2023-08-24T09:58:20;6.72;;;3.15;;
53261;SDS011;39658;51.090;-1.786;2023-08-24T10:00:48;6.60;;;2.17;;
53261;SDS011;39658;51.090;-1.786;2023-08-24T10:03:17;7.75;;;2.70;;
53261;SDS011;39658;51.090;-1.786;2023-08-24T10:05:50;4.80;;;2.13;;
53261;SDS011;39658;51.090;-1.786;2023-08-24T10:08:20;7.00;;;2.88;;
53261;SDS011;39658;51.090;-1.786;2023-08-24T10:10:52;5.03;;;2.10;;
53261;SDS011;39658;51.090;-1.786;2023-08-24T10:13:23;4.97;;;1.95;;
53261;SDS011;39658;51.090;-1.786;2023-08-24T10:15:57;3.13;;;1.50;;
53261;SDS011;39658;51.090;-1.786;2023-08-24T10:18:28;5.45;;;2.10;;
53261;SDS011;39658;51.090;-1.786;2023-08-24T10:20:55;4.57;;;2.25;;
53261;SDS011;39658;51.090;-1.786;2023-08-24T10:23:22;5.55;;;2.05;;
53261;SDS011;39658;51.090;-1.786;2023-08-24T10:25:51;4.68;;;1.70;;
53261;SDS011;39658;51.090;-1.786;2023-08-24T10:28:18;7.90;;;1.70;;
53261;SDS011;39658;51.090;-1.786;2023-08-24T10:30:46;4.28;;;1.20;;
53261;SDS011;39658;51.090;-1.786;2023-08-24T10:33:14;4.53;;;1.52;;
53261;SDS011;39658;51.090;-1.786;2023-08-24T10:35:43;6.57;;;2.42;;
53261;SDS011;39658;51.090;-1.786;2023-08-24T10:38:22;4.88;;;2.15;;
53261;SDS011;39658;51.090;-1.786;2023-08-24T10:40:50;6.15;;;1.58;;
53261;SDS011;39658;51.090;-1.786;2023-08-24T10:43:17;6.45;;;1.88;;
53261;SDS011;39658;51.090;-1.786;2023-08-24T10:48:30;7.43;;;1.90;;
53261;SDS011;39658;51.090;-1.786;2023-08-24T10:51:21;5.15;;;2.25;;
53261;SDS011;39658;51.090;-1.786;2023-08-24T10:53:52;6.43;;;2.00;;
53261;SDS011;39658;51.090;-1.786;2023-08-24T10:56:19;5.07;;;1.73;;
53261;SDS011;39658;51.090;-1.786;2023-08-24T10:58:47;6.40;;;1.92;;
53261;SDS011;39658;51.090;-1.786;2023-08-24T11:01:34;5.30;;;1.52;;
53261;SDS011;39658;51.090;-1.786;2023-08-24T11:04:04;5.28;;;1.92;;
53261;SDS011;39658;51.090;-1.786;2023-08-24T11:06:34;7.25;;;1.85;;
53261;SDS011;39658;51.090;-1.786;2023-08-24T11:09:07;5.35;;;1.88;;
53261;SDS011;39658;51.090;-1.786;2023-08-24T11:11:40;6.03;;;2.35;;
53261;SDS011;39658;51.090;-1.786;2023-08-24T11:14:13;7.60;;;1.92;;
53261;SDS011;39658;51.090;-1.786;2023-08-24T11:16:41;5.65;;;2.08;;
53261;SDS011;39658;51.090;-1.786;2023-08-24T11:19:09;4.93;;;2.20;;
53261;SDS011;39658;51.090;-1.786;2023-08-24T11:21:39;9.90;;;2.58;;
53261;SDS011;39658;51.090;-1.786;2023-08-24T11:24:07;9.10;;;1.92;;
53261;SDS011;39658;51.090;-1.786;2023-08-24T11:26:38;5.47;;;1.98;;
53261;SDS011;39658;51.090;-1.786;2023-08-24T11:29:06;6.75;;;2.70;;
53261;SDS011;39658;51.090;-1.786;2023-08-24T11:31:33;5.22;;;1.80;;
53261;SDS011;39658;51.090;-1.786;2023-08-24T11:34:00;8.85;;;2.50;;
53261;SDS011;39658;51.090;-1.786;2023-08-24T11:36:28;5.15;;;1.92;;
53261;SDS011;39658;51.090;-1.786;2023-08-24T11:38:57;6.93;;;2.65;;
53261;SDS011;39658;51.090;-1.786;2023-08-24T11:41:25;7.50;;;1.88;;
53261;SDS011;39658;51.090;-1.786;2023-08-24T11:44:02;4.82;;;2.00;;
53261;SDS011;39658;51.090;-1.786;2023-08-24T11:48:56;5.72;;;1.75;;
53261;SDS011;39658;51.090;-1.786;2023-08-24T11:51:24;5.93;;;2.38;;
53261;SDS011;39658;51.090;-1.786;2023-08-24T11:53:51;7.25;;;2.70;;
53261;SDS011;39658;51.090;-1.786;2023-08-24T11:56:19;9.35;;;2.67;;
53261;SDS011;39658;51.090;-1.786;2023-08-24T11:58:50;4.85;;;2.45;;
53261;SDS011;39658;51.090;-1.786;2023-08-24T12:01:17;6.97;;;2.38;;
53261;SDS011;39658;51.090;-1.786;2023-08-24T12:03:44;6.43;;;1.98;;
53261;SDS011;39658;51.090;-1.786;2023-08-24T12:06:11;4.80;;;2.17;;
53261;SDS011;39658;51.090;-1.786;2023-08-24T12:08:39;7.40;;;2.00;;
53261;SDS011;39658;51.090;-1.786;2023-08-24T12:11:10;8.35;;;2.70;;
53261;SDS011;39658;51.090;-1.786;2023-08-24T12:13:43;7.82;;;2.70;;
53261;SDS011;39658;51.090;-1.786;2023-08-24T12:16:12;7.60;;;2.38;;
53261;SDS011;39658;51.090;-1.786;2023-08-24T12:18:46;6.07;;;2.70;;
53261;SDS011;39658;51.090;-1.786;2023-08-24T12:21:14;5.10;;;1.90;;
53261;SDS011;39658;51.090;-1.786;2023-08-24T12:23:41;8.00;;;2.35;;
53261;SDS011;39658;51.090;-1.786;2023-08-24T12:26:08;4.78;;;1.85;;
53261;SDS011;39658;51.090;-1.786;2023-08-24T12:28:34;5.10;;;1.90;;
53261;SDS011;39658;51.090;-1.786;2023-08-24T12:31:03;5.22;;;2.47;;
53261;SDS011;39658;51.090;-1.786;2023-08-24T12:33:30;7.60;;;2.38;;
53261;SDS011;39658;51.090;-1.786;2023-08-24T12:35:58;5.28;;;2.20;;
53261;SDS011;39658;51.090;-1.786;2023-08-24T12:38:25;7.95;;;2.63;;
53261;SDS011;39658;51.090;-1.786;2023-08-24T12:40:53;4.43;;;2.05;;
53261;SDS011;39658;51.090;-1.786;2023-08-24T12:43:20;9.18;;;2.20;;
53261;SDS011;39658;51.090;-1.786;2023-08-24T12:45:47;7.63;;;2.53;;
53261;SDS011;39658;51.090;-1.786;2023-08-24T12:48:15;7.78;;;2.75;;
53261;SDS011;39658;51.090;-1.786;2023-08-24T12:50:42;7.13;;;2.00;;
53261;SDS011;39658;51.090;-1.786;2023-08-24T12:53:09;5.03;;;1.95;;
53261;SDS011;39658;51.090;-1.786;2023-08-24T12:55:38;11.80;;;3.50;;
53261;SDS011;39658;51.090;-1.786;2023-08-24T12:58:06;7.78;;;2.40;;
53261;SDS011;39658;51.090;-1.786;2023-08-24T13:00:33;5.60;;;2.13;;
53261;SDS011;39658;51.090;-1.786;2023-08-24T13:03:00;7.07;;;1.95;;
53261;SDS011;39658;51.090;-1.786;2023-08-24T13:05:28;7.85;;;2.42;;
53261;SDS011;39658;51.090;-1.786;2023-08-24T13:07:55;6.70;;;2.40;;
53261;SDS011;39658;51.090;-1.786;2023-08-24T13:10:22;9.05;;;2.33;;
53261;SDS011;39658;51.090;-1.786;2023-08-24T13:12:50;6.32;;;2.90;;
53261;SDS011;39658;51.090;-1.786;2023-08-24T13:15:17;7.65;;;2.50;;
53261;SDS011;39658;51.090;-1.786;2023-08-24T13:17:45;7.47;;;2.70;;
53261;SDS011;39658;51.090;-1.786;2023-08-24T13:20:11;5.82;;;1.60;;
53261;SDS011;39658;51.090;-1.786;2023-08-24T13:22:40;6.75;;;2.03;;
53261;SDS011;39658;51.090;-1.786;2023-08-24T13:25:07;6.10;;;2.00;;
53261;SDS011;39658;51.090;-1.786;2023-08-24T13:27:34;7.97;;;2.88;;
53261;SDS011;39658;51.090;-1.786;2023-08-24T13:30:01;8.45;;;2.30;;
53261;SDS011;39658;51.090;-1.786;2023-08-24T13:32:29;6.90;;;2.10;;
53261;SDS011;39658;51.090;-1.786;2023-08-24T13:34:56;4.78;;;2.17;;
53261;SDS011;39658;51.090;-1.786;2023-08-24T13:37:23;4.60;;;1.67;;
53261;SDS011;39658;51.090;-1.786;2023-08-24T13:39:52;9.60;;;2.17;;
53261;SDS011;39658;51.090;-1.786;2023-08-24T13:42:18;10.77;;;2.25;;
53261;SDS011;39658;51.090;-1.786;2023-08-24T13:44:45;5.35;;;2.22;;
53261;SDS011;39658;51.090;-1.786;2023-08-24T13:47:13;6.10;;;2.50;;
53261;SDS011;39658;51.090;-1.786;2023-08-24T13:49:39;6.05;;;2.42;;
53261;SDS011;39658;51.090;-1.786;2023-08-24T13:52:06;6.47;;;2.72;;
53261;SDS011;39658;51.090;-1.786;2023-08-24T13:54:33;12.90;;;2.47;;
53261;SDS011;39658;51.090;-1.786;2023-08-24T13:57:02;6.38;;;2.13;;
53261;SDS011;39658;51.090;-1.786;2023-08-24T13:59:29;5.25;;;2.42;;
53261;SDS011;39658;51.090;-1.786;2023-08-24T14:01:56;6.70;;;2.65;;
53261;SDS011;39658;51.090;-1.786;2023-08-24T14:04:22;8.80;;;3.03;;
53261;SDS011;39658;51.090;-1.786;2023-08-24T14:06:49;5.32;;;2.47;;
53261;SDS011;39658;51.090;-1.786;2023-08-24T14:09:16;4.85;;;2.22;;
53261;SDS011;39658;51.090;-1.786;2023-08-24T14:11:43;5.47;;;1.88;;
53261;SDS011;39658;51.090;-1.786;2023-08-24T14:14:11;5.65;;;2.92;;
53261;SDS011;39658;51.090;-1.786;2023-08-24T14:16:38;6.68;;;2.88;;
53261;SDS011;39658;51.090;-1.786;2023-08-24T14:19:05;5.00;;;2.08;;
53261;SDS011;39658;51.090;-1.786;2023-08-24T14:21:32;5.72;;;1.60;;
53261;SDS011;39658;51.090;-1.786;2023-08-24T14:23:58;11.02;;;1.73;;
53261;SDS011;39658;51.090;-1.786;2023-08-24T14:26:25;3.47;;;1.30;;
53261;SDS011;39658;51.090;-1.786;2023-08-24T14:28:53;4.80;;;1.55;;
53261;SDS011;39658;51.090;-1.786;2023-08-24T14:31:23;3.50;;;1.42;;
53261;SDS011;39658;51.090;-1.786;2023-08-24T14:33:51;4.55;;;1.27;;
53261;SDS011;39658;51.090;-1.786;2023-08-24T14:36:18;3.58;;;1.30;;
53261;SDS011;39658;51.090;-1.786;2023-08-24T14:38:46;4.22;;;1.10;;
53261;SDS011;39658;51.090;-1.786;2023-08-24T14:41:13;6.43;;;1.80;;
53261;SDS011;39658;51.090;-1.786;2023-08-24T14:43:41;7.72;;;1.17;;